Time;durP1;ratioP1;P1;durP2;ratioP2;P2;SDS_P1;SDS_P2;PMS_P1;PMS_P2;Temp;Humidity;BMP_temperature;BMP_pressure;BME280_temperature;BME280_humidity;BME280_pressure;Samples;Min_cycle;Max_cycle;Signal;HPM_P1;HPM_P2
2022/12/19 00:01:07;;;;;;;1.23;1.13;;;0.20;99.90;;;;;;6243415;23;20012;-82
2022/12/19 00:03:33;;;;;;;1.17;1.08;;;0.20;99.90;;;;;;6243615;23;20016;-81
2022/12/19 00:06:03;;;;;;;2.53;0.97;;;0.60;99.90;;;;;;6243080;23;20412;-82
2022/12/19 00:08:29;;;;;;;2.17;1.90;;;0.20;99.90;;;;;;6244122;23;20100;-82
2022/12/19 00:10:59;;;;;;;1.87;1.63;;;0.20;99.90;;;;;;6244028;23;20055;-82
2022/12/19 00:13:26;;;;;;;3.30;1.48;;;0.20;99.90;;;;;;6217915;23;20027;-82
2022/12/19 00:15:51;;;;;;;1.90;0.80;;;0.20;99.90;;;;;;6244693;22;20016;-82
2022/12/19 00:18:17;;;;;;;1.15;1.05;;;0.20;99.90;;;;;;6243676;23;20023;-82
2022/12/19 00:20:43;;;;;;;1.77;1.03;;;0.20;99.90;;;;;;6244418;22;20099;-81
2022/12/19 00:23:09;;;;;;;3.20;1.08;;;1.10;99.90;;;;;;6244768;23;20022;-82
2022/12/19 00:25:34;;;;;;;2.03;0.77;;;0.20;99.90;;;;;;6243859;23;20027;-82
2022/12/19 00:28:00;;;;;;;2.97;2.27;;;1.20;99.90;;;;;;6245772;23;20063;-82
2022/12/19 00:30:26;;;;;;;2.77;1.20;;;0.30;99.90;;;;;;6245167;23;20019;-82
2022/12/19 00:32:51;;;;;;;3.10;1.20;;;0.60;99.90;;;;;;6246260;23;20129;-82
2022/12/19 00:35:17;;;;;;;1.80;1.13;;;0.50;99.90;;;;;;6245751;23;20095;-82
2022/12/19 00:37:43;;;;;;;1.80;1.40;;;0.40;99.90;;;;;;6245420;23;20043;-82
2022/12/19 00:40:09;;;;;;;3.90;1.83;;;0.40;99.90;;;;;;6244227;23;20020;-85
2022/12/19 00:42:35;;;;;;;2.78;1.27;;;0.40;99.90;;;;;;6245274;23;20352;-81
2022/12/19 00:45:00;;;;;;;2.23;1.40;;;0.50;99.90;;;;;;6219652;23;20076;-82
2022/12/19 00:47:26;;;;;;;1.53;0.90;;;0.50;99.90;;;;;;6220309;23;20385;-82
2022/12/19 00:49:52;;;;;;;2.57;1.43;;;1.40;99.90;;;;;;6219795;23;20019;-85
2022/12/19 00:52:17;;;;;;;0.70;0.63;;;1.30;99.90;;;;;;6246154;22;20012;-83
2022/12/19 00:54:43;;;;;;;2.13;0.83;;;0.50;99.90;;;;;;6244744;23;20023;-82
2022/12/19 00:57:09;;;;;;;1.92;1.48;;;0.60;99.90;;;;;;6244872;23;20026;-82
2022/12/19 00:59:34;;;;;;;1.13;0.93;;;0.60;99.90;;;;;;6245443;23;20020;-82
2022/12/19 01:02:00;;;;;;;2.37;2.13;;;0.90;99.90;;;;;;6244419;23;20020;-82
2022/12/19 01:04:26;;;;;;;2.77;1.37;;;1.60;99.90;;;;;;6245260;23;20012;-82
2022/12/19 01:06:51;;;;;;;1.60;1.20;;;0.90;99.90;;;;;;6224381;22;20437;-89
2022/12/19 01:09:17;;;;;;;3.75;1.95;;;0.70;99.90;;;;;;6189785;23;20200;-82
2022/12/19 01:14:27;;;;;;;2.42;1.85;;;1.00;99.90;;;;;;6216243;23;20472;-82
2022/12/19 01:16:53;;;;;;;3.13;0.80;;;1.30;99.90;;;;;;6139900;23;20020;-87
2022/12/19 01:19:19;;;;;;;7.10;1.70;;;1.10;99.90;;;;;;6164524;23;20100;-82
2022/12/19 01:21:45;;;;;;;1.98;0.88;;;1.40;99.90;;;;;;6189948;23;20097;-82
2022/12/19 01:24:10;;;;;;;1.13;1.03;;;0.80;99.90;;;;;;6215618;23;20056;-82
2022/12/19 01:26:36;;;;;;;1.97;1.47;;;0.80;99.90;;;;;;6216519;23;20020;-82
2022/12/19 01:29:03;;;;;;;0.90;0.80;;;0.80;99.90;;;;;;6188855;23;20025;-82
2022/12/19 01:31:28;;;;;;;2.75;1.25;;;1.70;99.90;;;;;;6189316;23;20020;-82
2022/12/19 01:33:54;;;;;;;2.67;0.93;;;0.80;99.90;;;;;;6189404;23;20025;-82
2022/12/19 01:36:20;;;;;;;3.20;1.10;;;0.60;99.90;;;;;;6215691;23;20021;-82
2022/12/19 01:38:46;;;;;;;2.80;1.75;;;0.80;99.90;;;;;;6214978;23;20024;-82
2022/12/19 01:41:11;;;;;;;0.87;0.87;;;0.80;99.90;;;;;;6188541;23;20024;-82
2022/12/19 01:44:02;;;;;;;4.37;1.53;;;0.90;99.90;;;;;;6189072;23;20017;-82
2022/12/19 01:46:50;;;;;;;1.00;0.70;;;0.90;99.90;;;;;;6189985;23;20079;-82
2022/12/19 01:49:28;;;;;;;4.07;0.77;;;0.90;99.90;;;;;;6163814;23;20017;-82
2022/12/19 01:51:57;;;;;;;1.92;0.70;;;1.00;99.90;;;;;;6215852;23;20055;-81
2022/12/19 01:54:32;;;;;;;2.50;0.63;;;1.00;99.90;;;;;;6215050;23;20025;-82
2022/12/19 01:56:59;;;;;;;1.35;1.25;;;1.00;99.90;;;;;;6189484;23;20039;-82
2022/12/19 01:59:30;;;;;;;1.42;1.33;;;1.00;99.90;;;;;;6215043;23;20477;-82
2022/12/19 02:02:02;;;;;;;1.05;1.05;;;1.00;99.90;;;;;;6188392;23;20031;-82
2022/12/19 02:04:28;;;;;;;1.35;0.55;;;1.10;99.90;;;;;;6189908;23;20012;-82
2022/12/19 02:06:55;;;;;;;5.00;2.15;;;1.10;99.90;;;;;;6212016;23;20024;-82
2022/12/19 02:09:21;;;;;;;0.98;0.80;;;1.10;99.90;;;;;;6245786;23;20008;-82
2022/12/19 02:11:46;;;;;;;1.63;1.23;;;1.10;99.90;;;;;;6245833;23;20095;-84
2022/12/19 02:14:12;;;;;;;5.70;1.63;;;1.10;99.90;;;;;;6218696;23;20016;-85
2022/12/19 02:17:11;;;;;;;2.78;1.00;;;1.10;99.90;;;;;;6246028;23;20139;-82
2022/12/19 02:20:04;;;;;;;3.53;1.33;;;1.10;99.90;;;;;;6218174;23;20012;-82
2022/12/19 02:23:07;;;;;;;2.63;1.52;;;1.10;99.90;;;;;;6219261;23;20436;-81
2022/12/19 02:25:35;;;;;;;2.05;1.17;;;1.10;99.90;;;;;;6245603;23;20467;-81
2022/12/19 02:28:17;;;;;;;3.08;1.60;;;1.10;99.90;;;;;;6193631;23;20328;-82
2022/12/19 02:31:05;;;;;;;2.60;1.10;;;1.10;99.90;;;;;;6218819;23;20016;-81
2022/12/19 02:33:48;;;;;;;3.00;1.92;;;1.00;99.90;;;;;;6246144;23;20137;-82
2022/12/19 02:36:19;;;;;;;3.17;1.40;;;1.00;99.90;;;;;;6218779;23;20373;-82
2022/12/19 02:38:52;;;;;;;1.90;1.23;;;1.00;99.90;;;;;;6244920;23;20024;-82
2022/12/19 02:41:43;;;;;;;1.70;1.48;;;1.00;99.90;;;;;;6218717;23;20012;-82
2022/12/19 02:44:24;;;;;;;3.83;1.48;;;2.00;99.90;;;;;;6218527;23;20023;-81
2022/12/19 02:46:51;;;;;;;3.00;1.05;;;1.00;99.90;;;;;;6219479;23;20341;-81
2022/12/19 02:49:17;;;;;;;7.03;1.15;;;1.00;99.90;;;;;;6243754;23;20012;-81
2022/12/19 02:51:43;;;;;;;5.00;1.40;;;1.00;99.90;;;;;;6193613;23;20475;-81
2022/12/19 02:54:09;;;;;;;0.57;0.57;;;1.00;99.90;;;;;;6244725;23;20452;-83
2022/12/19 02:56:53;;;;;;;1.87;1.03;;;1.00;99.90;;;;;;6219008;23;20066;-81
2022/12/19 02:59:21;;;;;;;1.65;1.55;;;1.00;99.90;;;;;;6217931;23;20050;-81
2022/12/19 03:01:54;;;;;;;1.27;0.80;;;2.20;99.90;;;;;;6217782;23;20058;-81
2022/12/19 03:04:29;;;;;;;2.85;0.70;;;1.00;99.90;;;;;;6193368;23;20467;-81
2022/12/19 03:07:06;;;;;;;0.57;0.57;;;1.00;99.90;;;;;;6245009;23;20028;-81
2022/12/19 03:09:45;;;;;;;1.23;1.05;;;1.00;99.90;;;;;;6218394;23;20441;-81
2022/12/19 03:12:19;;;;;;;3.30;1.38;;;1.10;99.90;;;;;;6193202;23;20017;-83
2022/12/19 03:14:47;;;;;;;3.45;2.25;;;1.10;99.90;;;;;;6245748;23;20027;-81
2022/12/19 03:17:13;;;;;;;2.35;0.75;;;1.10;99.90;;;;;;6244245;23;20445;-82
2022/12/19 03:19:39;;;;;;;3.80;1.57;;;2.30;99.90;;;;;;6218473;23;20081;-81
2022/12/19 03:22:06;;;;;;;2.67;0.85;;;1.90;99.90;;;;;;6245530;23;20070;-81
2022/12/19 03:24:32;;;;;;;2.95;1.23;;;1.20;99.90;;;;;;6244115;23;20209;-82
2022/12/19 03:27:24;;;;;;;3.57;0.63;;;1.30;99.90;;;;;;6217639;23;20380;-81
2022/12/19 03:30:11;;;;;;;1.35;0.90;;;2.00;99.90;;;;;;6218122;23;20016;-81
2022/12/19 03:32:40;;;;;;;1.27;0.98;;;1.30;99.90;;;;;;6217563;23;20027;-81
2022/12/19 03:35:14;;;;;;;2.80;0.98;;;1.40;99.90;;;;;;6244324;23;20020;-81
2022/12/19 03:37:41;;;;;;;1.42;0.65;;;1.40;99.90;;;;;;6245768;23;20016;-81
2022/12/19 03:40:15;;;;;;;0.88;0.65;;;2.00;99.90;;;;;;6242968;23;20440;-83
2022/12/19 03:45:39;;;;;;;2.40;0.90;;;1.90;99.90;;;;;;6215684;23;20027;-81
2022/12/19 03:48:14;;;;;;;2.25;0.70;;;1.60;99.90;;;;;;6217875;23;20260;-81
2022/12/19 03:50:59;;;;;;;0.75;0.75;;;2.60;99.90;;;;;;6245056;23;20113;-82
2022/12/19 03:53:56;;;;;;;1.15;1.05;;;1.70;99.90;;;;;;6217484;23;20020;-81
2022/12/19 03:56:29;;;;;;;2.00;0.82;;;1.70;99.90;;;;;;6215752;23;20016;-84
2022/12/19 03:59:03;;;;;;;1.17;0.82;;;1.70;99.90;;;;;;6216817;23;20035;-82
2022/12/19 04:01:32;;;;;;;4.72;1.08;;;1.80;99.90;;;;;;6243585;23;20364;-81
2022/12/19 04:04:00;;;;;;;2.22;1.02;;;2.80;99.90;;;;;;6216606;23;20051;-82
2022/12/19 04:06:30;;;;;;;0.50;0.50;;;1.80;99.90;;;;;;6216035;23;20078;-81
2022/12/19 04:08:57;;;;;;;1.27;0.68;;;1.90;99.90;;;;;;6244328;23;20020;-81
2022/12/19 04:11:25;;;;;;;1.77;0.88;;;1.90;99.90;;;;;;6244487;23;20016;-82
2022/12/19 04:13:56;;;;;;;0.55;0.55;;;2.10;99.90;;;;;;6244163;23;20028;-82
2022/12/19 04:16:47;;;;;;;3.50;1.40;;;1.90;99.90;;;;;;6216817;23;20019;-88
2022/12/19 04:19:19;;;;;;;2.78;1.40;;;1.90;99.90;;;;;;6243375;23;20020;-81
2022/12/19 04:21:55;;;;;;;2.42;1.48;;;2.00;99.90;;;;;;6217686;23;20403;-81
2022/12/19 04:24:26;;;;;;;1.27;0.65;;;2.40;99.90;;;;;;6215598;23;20403;-82
2022/12/19 04:26:54;;;;;;;2.60;1.10;;;2.00;99.90;;;;;;6217595;23;20024;-81
2022/12/19 04:29:21;;;;;;;2.63;0.75;;;2.00;99.90;;;;;;6217822;23;20020;-88
2022/12/19 04:31:48;;;;;;;2.80;1.15;;;2.30;99.90;;;;;;6244213;23;20065;-81
2022/12/19 04:34:19;;;;;;;0.38;0.30;;;2.10;99.90;;;;;;6245035;23;20091;-81
2022/12/19 04:36:45;;;;;;;2.42;1.45;;;2.10;99.90;;;;;;6245162;23;20027;-82
2022/12/19 04:39:10;;;;;;;1.43;1.20;;;2.40;99.90;;;;;;6217816;23;20024;-81
2022/12/19 04:41:36;;;;;;;0.87;0.70;;;2.10;99.90;;;;;;6244580;23;20023;-82
2022/12/19 04:44:02;;;;;;;3.23;1.50;;;2.10;99.90;;;;;;6193069;23;20023;-82
2022/12/19 04:46:27;;;;;;;2.30;1.00;;;2.20;99.90;;;;;;6193033;23;20024;-81
2022/12/19 04:48:53;;;;;;;2.73;1.23;;;2.30;99.90;;;;;;6217874;23;20016;-81
2022/12/19 04:51:19;;;;;;;2.20;0.70;;;2.20;99.90;;;;;;6244944;23;20024;-81
2022/12/19 04:53:44;;;;;;;2.40;0.83;;;3.00;99.90;;;;;;6215819;23;20016;-81
2022/12/19 04:56:10;;;;;;;3.20;0.87;;;2.20;99.90;;;;;;6242420;23;20031;-82
2022/12/19 04:58:35;;;;;;;2.73;0.53;;;2.20;99.90;;;;;;6243081;23;20012;-81
2022/12/19 05:01:06;;;;;;;1.70;1.10;;;2.90;99.90;;;;;;6192677;23;20016;-81
2022/12/19 05:03:33;;;;;;;1.65;1.30;;;2.80;99.90;;;;;;6217145;23;20031;-81
2022/12/19 05:06:06;;;;;;;3.28;1.00;;;2.20;99.90;;;;;;6216188;23;20058;-81
2022/12/19 05:08:32;;;;;;;2.35;1.50;;;2.30;99.90;;;;;;6217932;23;20337;-81
2022/12/19 05:11:00;;;;;;;1.23;0.93;;;2.60;99.90;;;;;;6243673;23;20008;-81
2022/12/19 05:13:26;;;;;;;2.60;0.63;;;2.30;99.90;;;;;;6243112;23;20020;-87
2022/12/19 05:15:56;;;;;;;1.80;0.77;;;2.30;99.90;;;;;;6217701;23;20016;-81
2022/12/19 05:18:22;;;;;;;1.35;0.90;;;2.40;99.90;;;;;;6246483;23;20016;-81
2022/12/19 05:20:48;;;;;;;2.67;2.03;;;2.40;99.90;;;;;;6244714;23;20111;-81
2022/12/19 05:23:14;;;;;;;5.37;1.67;;;3.50;99.90;;;;;;6218731;23;20012;-81
2022/12/19 05:25:39;;;;;;;0.63;0.63;;;2.40;99.90;;;;;;6193459;23;20095;-81
2022/12/19 05:28:05;;;;;;;3.37;1.13;;;2.40;99.90;;;;;;6245074;23;20102;-81
2022/12/19 05:30:31;;;;;;;2.20;0.60;;;2.40;99.90;;;;;;6218714;23;20027;-82
2022/12/19 05:32:56;;;;;;;2.90;0.83;;;2.40;99.90;;;;;;6193154;23;20023;-81
2022/12/19 05:35:22;;;;;;;2.67;0.87;;;3.70;99.90;;;;;;6218748;23;20020;-81
2022/12/19 05:37:48;;;;;;;3.07;0.90;;;2.50;99.90;;;;;;6245115;23;20012;-81
2022/12/19 05:40:13;;;;;;;1.43;0.77;;;2.50;99.90;;;;;;6245800;23;20016;-81
2022/12/19 05:42:39;;;;;;;0.47;0.47;;;2.50;99.90;;;;;;6218629;23;20023;-82
2022/12/19 05:45:05;;;;;;;1.40;1.30;;;3.80;99.90;;;;;;6245915;23;20031;-81
2022/12/19 05:47:31;;;;;;;1.33;1.17;;;2.60;99.90;;;;;;6217609;23;20016;-82
2022/12/19 05:49:56;;;;;;;4.50;1.37;;;3.50;99.90;;;;;;6218751;23;20035;-86
2022/12/19 05:52:23;;;;;;;1.93;0.87;;;2.60;99.90;;;;;;6244964;23;20012;-80
2022/12/19 05:54:49;;;;;;;3.92;1.27;;;2.60;99.90;;;;;;6191848;23;20020;-80
2022/12/19 05:57:15;;;;;;;1.30;0.97;;;2.70;99.90;;;;;;6192651;23;20073;-81
2022/12/19 05:59:41;;;;;;;0.63;0.63;;;2.80;99.90;;;;;;6244968;23;20020;-81
2022/12/19 06:02:07;;;;;;;0.73;0.30;;;2.70;99.90;;;;;;6193132;23;20096;-80
2022/12/19 06:04:33;;;;;;;1.97;0.60;;;2.70;99.90;;;;;;6193446;23;20030;-87
2022/12/19 06:06:59;;;;;;;1.30;0.63;;;2.70;99.90;;;;;;6243406;23;20158;-81
2022/12/19 06:09:25;;;;;;;1.33;0.87;;;2.80;99.90;;;;;;6218627;23;20064;-81
2022/12/19 06:11:50;;;;;;;4.60;1.80;;;3.20;99.90;;;;;;6218869;23;20098;-81
2022/12/19 06:14:16;;;;;;;0.90;0.50;;;2.90;99.90;;;;;;6246306;23;20012;-81
2022/12/19 06:16:42;;;;;;;2.30;1.03;;;2.90;99.90;;;;;;6244778;23;20023;-82
2022/12/19 06:19:07;;;;;;;2.03;0.90;;;2.90;99.90;;;;;;6192933;23;20027;-81
2022/12/19 06:21:33;;;;;;;0.90;0.60;;;3.30;99.90;;;;;;6219134;23;20061;-88
2022/12/19 06:23:59;;;;;;;2.80;0.83;;;3.30;99.90;;;;;;6192635;23;20023;-82
2022/12/19 06:26:24;;;;;;;1.00;0.73;;;2.90;99.90;;;;;;6192299;23;20020;-81
2022/12/19 06:28:51;;;;;;;1.17;1.03;;;3.80;99.90;;;;;;6190309;23;20727;-86
2022/12/19 06:31:19;;;;;;;1.40;0.82;;;3.00;99.90;;;;;;6217959;23;20452;-81
2022/12/19 06:33:45;;;;;;;0.55;0.25;;;3.60;99.90;;;;;;6244957;23;20024;-82
2022/12/19 06:36:20;;;;;;;1.80;0.63;;;3.10;99.90;;;;;;6168422;23;20023;-81
2022/12/19 06:38:46;;;;;;;1.63;0.82;;;3.30;99.90;;;;;;6191719;23;20016;-81
2022/12/19 06:44:00;;;;;;;0.43;0.20;;;3.80;99.90;;;;;;6216188;23;20077;-84
2022/12/19 06:46:26;;;;;;;1.75;1.00;;;4.00;99.90;;;;;;6245123;23;20059;-82
2022/12/19 06:48:52;;;;;;;0.47;0.47;;;3.50;99.90;;;;;;6242766;23;20020;-82
2022/12/19 06:51:17;;;;;;;3.67;0.50;;;3.80;99.90;;;;;;6244150;23;20022;-82
2022/12/19 06:53:43;;;;;;;1.43;1.00;;;3.30;99.90;;;;;;6243576;23;20127;-82
2022/12/19 06:56:12;;;;;;;1.93;0.83;;;3.30;99.90;;;;;;6216632;23;20016;-82
2022/12/19 06:58:38;;;;;;;0.98;0.25;;;4.40;99.90;;;;;;6243726;23;20020;-88
2022/12/19 07:01:03;;;;;;;2.10;0.50;;;2.80;99.90;;;;;;6192777;23;20067;-82
2022/12/19 07:03:33;;;;;;;0.83;0.70;;;3.50;99.90;;;;;;6193590;23;20341;-82
2022/12/19 07:05:59;;;;;;;0.95;0.82;;;4.10;99.90;;;;;;6239621;23;20542;-82
2022/12/19 07:08:25;;;;;;;1.20;0.37;;;3.50;99.90;;;;;;6215578;23;20097;-82
2022/12/19 07:10:52;;;;;;;0.30;0.20;;;3.50;99.90;;;;;;6113968;23;20017;-82
2022/12/19 07:13:18;;;;;;;;;;;3.50;99.90;;;;;;6189056;23;20020;-81
2022/12/19 07:15:43;;;;;;;1.75;1.17;;;3.50;99.90;;;;;;6161677;23;19920;-82
2022/12/19 07:18:10;;;;;;;0.10;0.10;;;3.50;99.90;;;;;;6188199;23;20396;-81
2022/12/19 07:20:37;;;;;;;0.95;0.95;;;3.60;99.90;;;;;;6186527;23;20120;-82
2022/12/19 07:23:05;;;;;;;0.35;0.35;;;3.50;99.90;;;;;;6186587;23;20031;-82
2022/12/19 07:25:31;;;;;;;1.48;0.50;;;3.60;99.90;;;;;;6161651;23;20124;-81
2022/12/19 07:27:57;;;;;;;1.50;0.87;;;3.90;99.90;;;;;;6160939;23;20450;-82
2022/12/19 07:30:23;;;;;;;0.77;0.57;;;3.60;99.90;;;;;;6162344;23;20017;-81
2022/12/19 07:32:48;;;;;;;2.03;1.23;;;3.60;99.90;;;;;;6184929;23;20017;-82
2022/12/19 07:35:15;;;;;;;0.23;0.20;;;3.60;99.90;;;;;;6187153;23;20476;-83
2022/12/19 07:37:41;;;;;;;4.13;0.63;;;3.70;99.90;;;;;;6162112;23;20446;-82
2022/12/19 07:40:07;;;;;;;0.70;0.40;;;3.70;99.90;;;;;;6161737;23;20031;-82
2022/12/19 07:42:33;;;;;;;0.85;0.85;;;3.70;99.90;;;;;;6186722;23;20021;-81
2022/12/19 07:45:00;;;;;;;1.17;0.70;;;3.70;99.90;;;;;;6186486;23;20016;-82
2022/12/19 07:47:26;;;;;;;2.22;0.50;;;4.80;99.90;;;;;;6186920;23;20397;-81
2022/12/19 07:50:01;;;;;;;0.73;0.40;;;3.80;99.90;;;;;;6161339;23;20017;-82
2022/12/19 07:52:27;;;;;;;0.40;0.40;;;3.80;99.90;;;;;;6212540;23;20059;-82
2022/12/19 07:54:53;;;;;;;0.33;0.23;;;3.80;99.90;;;;;;6212943;23;20020;-82
2022/12/19 07:57:18;;;;;;;2.47;0.73;;;3.80;99.90;;;;;;6163075;23;20092;-85
2022/12/19 07:59:45;;;;;;;1.60;0.77;;;3.80;99.90;;;;;;6188137;23;20051;-81
2022/12/19 08:02:11;;;;;;;1.15;0.52;;;3.80;99.90;;;;;;6185951;23;20013;-83
2022/12/19 08:04:37;;;;;;;0.77;0.47;;;3.80;99.90;;;;;;6186901;23;20019;-82
2022/12/19 08:07:03;;;;;;;0.67;0.50;;;4.30;99.90;;;;;;6231321;23;20391;-82
2022/12/19 08:09:29;;;;;;;0.35;0.35;;;3.90;99.90;;;;;;6216674;23;20055;-82
2022/12/19 08:11:56;;;;;;;0.33;0.33;;;4.30;99.90;;;;;;6215634;23;20066;-82
2022/12/19 08:14:22;;;;;;;;;;;4.00;99.90;;;;;;6216654;23;20437;-82
2022/12/19 08:16:47;;;;;;;0.47;0.20;;;4.00;99.90;;;;;;6216329;23;19961;-88
2022/12/19 08:19:13;;;;;;;0.20;0.17;;;4.00;99.90;;;;;;6216307;23;20054;-82
2022/12/19 08:21:39;;;;;;;1.43;0.40;;;4.50;99.90;;;;;;6216986;23;20344;-81
2022/12/19 08:24:05;;;;;;;0.30;0.30;;;4.70;99.90;;;;;;6217097;23;20016;-82
2022/12/19 08:26:30;;;;;;;0.10;0.10;;;4.20;99.90;;;;;;6192189;23;20063;-82
2022/12/19 08:28:57;;;;;;;1.17;0.43;;;4.10;99.90;;;;;;6241909;23;20099;-82
2022/12/19 08:31:25;;;;;;;0.63;0.63;;;4.20;99.90;;;;;;6218396;23;20016;-81
2022/12/19 08:33:55;;;;;;;0.45;0.45;;;4.30;99.90;;;;;;6242563;23;20020;-84
2022/12/19 08:36:21;;;;;;;0.50;0.50;;;4.30;99.90;;;;;;6245909;23;20016;-83
2022/12/19 08:38:48;;;;;;;0.40;0.17;;;4.30;99.90;;;;;;6216080;23;20314;-85
2022/12/19 08:41:15;;;;;;;0.70;0.47;;;4.40;99.90;;;;;;6216990;23;20021;-82
2022/12/19 08:43:41;;;;;;;0.70;0.25;;;4.40;99.90;;;;;;6192101;23;20016;-82
2022/12/19 08:46:08;;;;;;;0.32;0.32;;;4.80;99.90;;;;;;6216065;23;20016;-83
2022/12/19 08:48:35;;;;;;;0.98;0.57;;;4.50;99.90;;;;;;6193980;23;20020;-82
2022/12/19 08:51:02;;;;;;;;;;;4.50;99.90;;;;;;6220482;23;20052;-82
2022/12/19 08:53:29;;;;;;;2.42;0.93;;;5.50;99.90;;;;;;6194485;23;20321;-83
2022/12/19 08:55:57;;;;;;;0.50;0.50;;;5.40;99.90;;;;;;6219945;23;20448;-84
2022/12/19 08:58:28;;;;;;;1.17;1.17;;;4.70;99.90;;;;;;6168655;23;20012;-83
2022/12/19 09:00:54;;;;;;;0.65;0.32;;;4.60;99.90;;;;;;6217969;23;20020;-86
2022/12/19 09:03:21;;;;;;;1.05;0.30;;;4.70;99.90;;;;;;6218614;23;20012;-81
2022/12/19 09:06:07;;;;;;;;;;;5.30;99.90;;;;;;6194008;23;20444;-81
2022/12/19 09:08:34;;;;;;;0.65;0.40;;;4.70;99.90;;;;;;6245127;23;20315;-82
2022/12/19 09:11:19;;;;;;;1.30;0.75;;;4.70;99.90;;;;;;6218609;23;20020;-83
2022/12/19 09:13:47;;;;;;;1.15;0.60;;;4.80;99.90;;;;;;6219171;23;20024;-83
2022/12/19 09:16:20;;;;;;;1.60;0.70;;;4.80;99.90;;;;;;6194009;23;20091;-84
2022/12/19 09:18:48;;;;;;;0.55;0.45;;;4.80;99.90;;;;;;6219060;23;20020;-83
2022/12/19 09:21:15;;;;;;;0.20;0.20;;;4.90;99.90;;;;;;6218739;23;20017;-82
2022/12/19 09:23:41;;;;;;;;;;;4.90;99.90;;;;;;6219523;23;20062;-82
2022/12/19 09:26:09;;;;;;;0.22;0.22;;;6.10;99.90;;;;;;6218147;23;20344;-82
2022/12/19 09:28:37;;;;;;;2.40;0.63;;;5.00;99.90;;;;;;6245093;23;20486;-84
2022/12/19 09:31:10;;;;;;;1.25;0.52;;;5.20;99.90;;;;;;6218565;23;20016;-83
2022/12/19 09:33:37;;;;;;;0.60;0.60;;;5.00;99.90;;;;;;6219145;23;20030;-83
2022/12/19 09:36:03;;;;;;;0.85;0.50;;;5.50;99.90;;;;;;6244657;23;20077;-83
2022/12/19 09:38:30;;;;;;;0.85;0.60;;;5.10;99.90;;;;;;6218704;23;20024;-88
2022/12/19 09:41:30;;;;;;;1.15;0.52;;;5.90;99.90;;;;;;6218779;23;20027;-83
2022/12/19 09:44:20;;;;;;;1.92;0.50;;;5.20;99.90;;;;;;6193878;23;20074;-86
2022/12/19 09:46:48;;;;;;;0.55;0.30;;;5.20;99.90;;;;;;6193915;23;20034;-82
2022/12/19 09:49:23;;;;;;;1.58;0.57;;;5.30;99.90;;;;;;6192772;23;20028;-83
2022/12/19 09:52:01;;;;;;;1.30;0.47;;;5.20;99.90;;;;;;6245151;23;20047;-82
2022/12/19 09:54:35;;;;;;;1.92;0.70;;;5.30;99.90;;;;;;6246143;23;20023;-82
2022/12/19 09:57:05;;;;;;;1.75;0.75;;;5.30;99.90;;;;;;6217857;23;20020;-81
2022/12/19 09:59:40;;;;;;;0.40;0.40;;;5.30;99.90;;;;;;6192578;23;20428;-82
2022/12/19 10:02:32;;;;;;;0.55;0.55;;;5.30;99.90;;;;;;6245073;23;20012;-82
2022/12/19 10:05:11;;;;;;;0.32;0.20;;;5.40;99.90;;;;;;6193906;23;20340;-82
2022/12/19 10:07:36;;;;;;;0.98;0.85;;;5.40;99.90;;;;;;6218020;23;20018;-82
2022/12/19 10:10:02;;;;;;;0.47;0.47;;;5.50;99.90;;;;;;6168718;23;20051;-82
2022/12/19 10:12:40;;;;;;;3.10;0.60;;;5.50;99.90;;;;;;6218180;23;20111;-83
2022/12/19 10:15:14;;;;;;;0.10;0.10;;;5.60;99.90;;;;;;6217978;23;20020;-83
2022/12/19 10:17:53;;;;;;;1.27;0.52;;;5.60;99.90;;;;;;6192155;23;20016;-82
2022/12/19 10:20:38;;;;;;;0.50;0.35;;;5.60;99.90;;;;;;6244530;23;20330;-82
2022/12/19 10:23:47;;;;;;;1.52;0.82;;;5.70;99.90;;;;;;6219381;23;20012;-82
2022/12/19 10:26:58;;;;;;;2.47;0.68;;;5.70;99.90;;;;;;6217407;23;20345;-82
2022/12/19 10:29:27;;;;;;;0.50;0.40;;;5.80;99.90;;;;;;6185145;23;20495;-83
2022/12/19 10:32:35;;;;;;;0.63;0.50;;;5.70;99.90;;;;;;6217536;23;20020;-83
2022/12/19 10:35:01;;;;;;;1.38;0.80;;;5.80;99.90;;;;;;6168089;23;20055;-82
2022/12/19 10:37:35;;;;;;;1.90;0.60;;;5.80;99.90;;;;;;6217777;23;20028;-82
2022/12/19 10:40:10;;;;;;;0.52;0.30;;;5.80;99.90;;;;;;6219075;23;20089;-82
2022/12/19 10:43:18;;;;;;;0.25;0.25;;;5.80;99.90;;;;;;6192748;23;20102;-82
2022/12/19 10:45:49;;;;;;;0.60;0.60;;;5.90;99.90;;;;;;6217041;23;20016;-82
2022/12/19 10:48:18;;;;;;;0.73;0.50;;;5.90;99.90;;;;;;6191735;23;20222;-82
2022/12/19 10:50:44;;;;;;;0.52;0.30;;;5.90;99.90;;;;;;6218129;23;20069;-83
2022/12/19 10:53:12;;;;;;;1.13;0.70;;;5.90;99.90;;;;;;6217569;23;20342;-85
2022/12/19 10:55:45;;;;;;;0.88;0.80;;;6.00;99.90;;;;;;6218343;23;20353;-87
2022/12/19 10:58:31;;;;;;;0.43;0.43;;;5.90;99.90;;;;;;6192565;23;20024;-86
2022/12/19 11:01:21;;;;;;;0.63;0.63;;;6.00;99.90;;;;;;6217899;23;20020;-82
2022/12/19 11:03:51;;;;;;;0.82;0.60;;;6.00;99.90;;;;;;6191669;23;20020;-83
2022/12/19 11:06:36;;;;;;;0.40;0.38;;;6.00;99.90;;;;;;6213945;23;20317;-82
2022/12/19 11:09:38;;;;;;;0.75;0.40;;;6.10;99.90;;;;;;6161553;23;20040;-82
2022/12/19 11:12:07;;;;;;;0.43;0.28;;;6.10;99.90;;;;;;6124248;23;20012;-83
2022/12/19 11:14:35;;;;;;;0.57;0.20;;;6.10;99.90;;;;;;6187448;23;20019;-85
2022/12/19 11:17:01;;;;;;;1.48;0.95;;;6.10;99.90;;;;;;6213799;23;20083;-85
2022/12/19 11:19:32;;;;;;;1.20;0.63;;;6.60;99.90;;;;;;6187210;23;20020;-83
2022/12/19 11:22:03;;;;;;;0.50;0.40;;;6.20;99.90;;;;;;6188305;23;20303;-84
2022/12/19 11:24:51;;;;;;;1.40;0.38;;;6.30;99.90;;;;;;6160783;23;20028;-83
2022/12/19 11:27:42;;;;;;;0.45;0.38;;;6.30;99.90;;;;;;6213368;23;20017;-83
2022/12/19 11:30:26;;;;;;;0.73;0.28;;;6.30;99.90;;;;;;6188257;23;20019;-83
2022/12/19 11:33:13;;;;;;;0.65;0.65;;;6.30;99.90;;;;;;6187709;23;20013;-82
2022/12/19 11:35:50;;;;;;;1.08;0.35;;;6.30;99.90;;;;;;6161915;23;20024;-83
2022/12/19 11:38:24;;;;;;;0.43;0.43;;;6.40;99.90;;;;;;6187789;23;20019;-83
2022/12/19 11:40:57;;;;;;;0.38;0.38;;;6.40;99.90;;;;;;6187800;23;20504;-82
2022/12/19 11:43:39;;;;;;;0.20;0.20;;;6.40;99.90;;;;;;6187764;23;20043;-83
2022/12/19 11:46:27;;;;;;;0.50;0.50;;;6.40;99.90;;;;;;6214021;23;20013;-82
2022/12/19 11:49:01;;;;;;;0.50;0.50;;;6.40;99.90;;;;;;6162816;23;20023;-84
2022/12/19 11:51:43;;;;;;;0.70;0.40;;;6.60;99.90;;;;;;6214015;23;20012;-86
2022/12/19 11:54:21;;;;;;;2.80;0.40;;;6.40;99.90;;;;;;6188655;23;20091;-79
2022/12/19 11:56:47;;;;;;;1.02;0.20;;;6.50;99.90;;;;;;6164169;23;20449;-82
2022/12/19 11:59:35;;;;;;;0.67;0.50;;;7.00;99.90;;;;;;6187287;23;20021;-83
2022/12/19 12:02:26;;;;;;;1.13;0.52;;;6.50;99.90;;;;;;6187051;23;20013;-84
2022/12/19 12:05:00;;;;;;;1.33;0.50;;;6.50;99.90;;;;;;6187398;23;20028;-82
2022/12/19 12:07:33;;;;;;;1.33;0.40;;;6.50;99.90;;;;;;6178360;23;20016;-83
2022/12/19 12:10:17;;;;;;;0.17;0.15;;;6.50;99.90;;;;;;6217250;23;20020;-82
2022/12/19 12:12:50;;;;;;;1.38;0.93;;;6.50;99.90;;;;;;6216474;23;20008;-82
2022/12/19 12:15:52;;;;;;;0.10;0.10;;;6.50;99.90;;;;;;6192171;23;20460;-83
2022/12/19 12:19:00;;;;;;;0.32;0.15;;;6.60;99.90;;;;;;6186593;23;20016;-82
2022/12/19 12:22:02;;;;;;;1.13;0.40;;;6.60;99.90;;;;;;6244694;23;20016;-84
2022/12/19 12:24:44;;;;;;;0.55;0.25;;;6.60;99.90;;;;;;6177713;23;20016;-85
2022/12/19 12:27:42;;;;;;;0.90;0.47;;;6.60;99.90;;;;;;6220516;23;20364;-84
2022/12/19 12:30:11;;;;;;;0.75;0.57;;;6.70;99.90;;;;;;6220771;23;20012;-84
2022/12/19 12:32:58;;;;;;;1.40;0.75;;;6.70;99.90;;;;;;6194741;23;20008;-84
2022/12/19 12:35:38;;;;;;;0.57;0.30;;;6.70;99.90;;;;;;6220134;23;20047;-85
2022/12/19 12:38:06;;;;;;;0.35;0.10;;;6.70;99.90;;;;;;6218975;23;20062;-87
2022/12/19 12:40:53;;;;;;;1.08;0.50;;;6.70;99.90;;;;;;6219416;23;20013;-82
2022/12/19 12:44:09;;;;;;;0.85;0.38;;;6.80;99.90;;;;;;6218841;23;20012;-83
2022/12/19 12:47:21;;;;;;;1.13;0.52;;;6.80;99.90;;;;;;6074959;23;20580;-83
2022/12/19 12:49:57;;;;;;;0.93;0.88;;;6.80;99.90;;;;;;6218556;23;20019;-88
2022/12/19 12:52:32;;;;;;;0.30;0.30;;;6.90;99.90;;;;;;6219837;23;20119;-83
2022/12/19 12:54:59;;;;;;;2.75;1.05;;;6.80;99.90;;;;;;6220929;23;20502;-83
2022/12/19 12:57:25;;;;;;;;;;;6.90;99.90;;;;;;6247767;23;20448;-82
2022/12/19 13:00:23;;;;;;;1.38;0.73;;;6.90;99.90;;;;;;6194457;23;19943;-83
2022/12/19 13:02:56;;;;;;;0.30;0.30;;;6.80;99.90;;;;;;6220123;23;20011;-83
2022/12/19 13:05:30;;;;;;;0.43;0.25;;;6.90;99.90;;;;;;6220434;23;20476;-82
2022/12/19 13:07:55;;;;;;;0.35;0.22;;;6.80;99.90;;;;;;6194369;23;20016;-82
2022/12/19 13:10:30;;;;;;;0.97;0.87;;;6.80;99.90;;;;;;6169678;23;20016;-82
2022/12/19 13:13:07;;;;;;;1.20;0.73;;;6.90;99.90;;;;;;6194928;23;20363;-83
2022/12/19 13:15:38;;;;;;;1.08;0.57;;;6.80;99.90;;;;;;6220090;23;20020;-82
2022/12/19 13:18:32;;;;;;;0.50;0.50;;;6.90;99.90;;;;;;6194290;23;20043;-83
2022/12/19 13:21:00;;;;;;;0.88;0.40;;;6.90;99.90;;;;;;6219834;23;20376;-82
2022/12/19 13:23:40;;;;;;;1.15;0.55;;;6.90;99.90;;;;;;6218965;23;20016;-83
2022/12/19 13:26:37;;;;;;;0.68;0.68;;;7.00;99.90;;;;;;6218539;23;20020;-83
2022/12/19 13:29:32;;;;;;;1.27;0.32;;;7.00;99.90;;;;;;6245456;23;20416;-83
2022/12/19 13:32:16;;;;;;;0.28;0.20;;;7.00;99.90;;;;;;6217350;23;20061;-82